createdAt,value
2018-03-06T00:00:02.839Z,38.8
2018-03-06T00:01:02.835Z,38.76
2018-03-06T00:02:02.806Z,38.82
2018-03-06T00:03:08.694Z,38.8
2018-03-06T00:04:02.803Z,38.79
2018-03-06T00:05:02.804Z,38.8
2018-03-06T00:06:02.830Z,38.83
2018-03-06T00:07:08.881Z,38.81
2018-03-06T00:08:02.822Z,38.81
2018-03-06T00:09:02.827Z,38.78
2018-03-06T00:10:02.791Z,38.79
2018-03-06T00:11:08.032Z,38.81
2018-03-06T00:12:02.803Z,38.83
2018-03-06T00:13:02.820Z,38.82
2018-03-06T00:14:02.868Z,38.79
2018-03-06T00:15:08.691Z,38.8
2018-03-06T00:16:02.774Z,38.72
2018-03-06T00:17:02.824Z,38.82
2018-03-06T00:18:02.796Z,38.78
2018-03-06T00:19:08.938Z,38.79
2018-03-06T00:20:02.851Z,38.83
2018-03-06T00:21:03.020Z,38.79
2018-03-06T00:22:06.693Z,38.75
2018-03-06T00:23:03.198Z,38.78
2018-03-06T00:24:02.874Z,38.78
2018-03-06T00:25:02.827Z,38.8
2018-03-06T00:26:08.076Z,38.78
2018-03-06T00:27:02.866Z,38.78
2018-03-06T00:28:02.839Z,38.78
2018-03-06T00:29:09.732Z,38.79
2018-03-06T00:30:02.838Z,38.8
2018-03-06T00:31:02.800Z,38.79
2018-03-06T00:32:02.821Z,38.84
2018-03-06T00:33:08.965Z,38.76
2018-03-06T00:34:02.840Z,38.79
2018-03-06T00:35:02.840Z,38.76
2018-03-06T00:36:02.819Z,38.83
2018-03-06T00:37:09.293Z,38.8
2018-03-06T00:38:02.792Z,38.84
2018-03-06T00:39:02.885Z,38.79
2018-03-06T00:40:02.835Z,38.77
2018-03-06T00:41:02.818Z,38.81
2018-03-06T00:42:02.842Z,38.84
2018-03-06T00:43:02.786Z,38.85
2018-03-06T00:44:08.906Z,38.84
2018-03-06T00:45:02.825Z,38.77
2018-03-06T00:46:02.805Z,38.81
2018-03-06T00:47:08.294Z,38.81
2018-03-06T00:48:02.778Z,38.85
2018-03-06T00:49:02.761Z,38.82
2018-03-06T00:50:09.415Z,38.86
2018-03-06T00:51:02.782Z,38.84
2018-03-06T00:52:02.821Z,38.82
2018-03-06T00:53:02.763Z,38.87
2018-03-06T00:54:08.770Z,38.87
2018-03-06T00:55:02.785Z,38.83
2018-03-06T00:56:02.791Z,38.84
2018-03-06T00:57:08.449Z,38.77
2018-03-06T00:58:02.863Z,38.82
2018-03-06T00:59:02.768Z,38.86
2018-03-06T01:00:02.768Z,38.83
2018-03-06T01:01:03.099Z,38.79
2018-03-06T01:02:02.816Z,38.84
2018-03-06T01:03:02.808Z,38.83
2018-03-06T01:04:09.830Z,38.79
2018-03-06T01:05:02.954Z,38.79
2018-03-06T01:06:02.902Z,38.84
2018-03-06T01:07:02.856Z,38.84
2018-03-06T01:08:07.655Z,38.78
2018-03-06T01:09:02.798Z,38.85
2018-03-06T01:10:02.838Z,38.79
2018-03-06T01:11:04.406Z,38.8
2018-03-06T01:12:02.873Z,38.82
2018-03-06T01:13:02.781Z,38.83
2018-03-06T01:14:02.765Z,38.79
2018-03-06T01:15:08.760Z,38.8
2018-03-06T01:16:02.808Z,38.78
2018-03-06T01:17:02.846Z,38.82
2018-03-06T01:18:02.814Z,38.79
2018-03-06T01:19:08.474Z,38.78
2018-03-06T01:20:02.814Z,38.79
2018-03-06T01:21:02.796Z,38.76
2018-03-06T01:22:02.799Z,38.79
2018-03-06T01:23:02.803Z,38.74
2018-03-06T01:24:02.942Z,38.76
2018-03-06T01:25:02.895Z,38.79
2018-03-06T01:26:09.269Z,38.83
2018-03-06T01:27:02.983Z,38.8
2018-03-06T01:28:02.808Z,38.76
2018-03-06T01:29:08.405Z,38.76
2018-03-06T01:30:02.800Z,38.79
2018-03-06T01:31:02.787Z,38.8
2018-03-06T01:32:03.572Z,38.75
2018-03-06T01:33:02.809Z,38.79
2018-03-06T01:34:02.778Z,38.76
2018-03-06T01:35:02.836Z,38.76
2018-03-06T01:36:08.616Z,38.77
2018-03-06T01:37:02.801Z,38.75
2018-03-06T01:38:02.846Z,38.79
2018-03-06T01:39:09.543Z,38.76
2018-03-06T01:40:02.861Z,38.82
2018-03-06T01:41:02.807Z,38.77
2018-03-06T01:42:08.604Z,38.76
2018-03-06T01:43:02.910Z,38.81
2018-03-06T01:44:02.798Z,38.81
2018-03-06T01:45:02.925Z,38.82
2018-03-06T01:46:09.370Z,38.77
2018-03-06T01:47:02.815Z,38.77
2018-03-06T01:48:03.367Z,38.78
2018-03-06T01:49:09.508Z,38.73
2018-03-06T01:50:02.847Z,38.77
2018-03-06T01:51:02.809Z,38.78
2018-03-06T01:52:09.860Z,38.82
2018-03-06T01:53:02.879Z,38.78
2018-03-06T01:54:02.753Z,38.79
2018-03-06T01:55:02.846Z,38.77
2018-03-06T01:56:02.829Z,38.77
2018-03-06T01:57:02.802Z,38.79
2018-03-06T01:58:02.781Z,38.82
2018-03-06T01:59:09.681Z,38.75
2018-03-06T02:00:03.438Z,38.8
2018-03-06T02:01:02.759Z,38.74
2018-03-06T02:02:02.787Z,38.75
2018-03-06T02:03:02.755Z,38.79
2018-03-06T02:04:02.872Z,38.75
2018-03-06T02:05:02.744Z,38.79
2018-03-06T02:06:09.421Z,38.78
2018-03-06T02:07:02.770Z,38.75
2018-03-06T02:08:02.753Z,38.75
2018-03-06T02:09:02.807Z,38.75
2018-03-06T02:10:02.838Z,38.79
2018-03-06T02:11:03.075Z,38.77
2018-03-06T02:12:02.739Z,38.74
2018-03-06T02:13:09.652Z,38.79
2018-03-06T02:14:02.794Z,38.76
2018-03-06T02:15:02.764Z,38.72
2018-03-06T02:16:02.813Z,38.76
2018-03-06T02:17:08.729Z,38.75
2018-03-06T02:18:02.782Z,38.71
2018-03-06T02:19:02.790Z,38.76
2018-03-06T02:20:02.835Z,38.79
2018-03-06T02:21:08.634Z,38.76
2018-03-06T02:22:03.055Z,38.77
2018-03-06T02:23:02.740Z,38.77
2018-03-06T02:24:04.057Z,38.77
2018-03-06T02:25:02.759Z,38.72
2018-03-06T02:26:02.783Z,38.72
2018-03-06T02:27:02.760Z,38.75
2018-03-06T02:28:09.017Z,38.69
2018-03-06T02:29:02.874Z,38.81
2018-03-06T02:30:02.800Z,38.78
2018-03-06T02:31:04.900Z,38.76
2018-03-06T02:32:02.748Z,38.74
2018-03-06T02:33:02.774Z,38.74
2018-03-06T02:34:02.748Z,38.78
2018-03-06T02:35:03.118Z,38.77
2018-03-06T02:36:02.759Z,38.79
2018-03-06T02:37:02.805Z,38.81
2018-03-06T02:38:02.784Z,38.84
2018-03-06T02:39:09.435Z,38.77
2018-03-06T02:40:02.804Z,38.79
2018-03-06T02:41:02.832Z,38.81
2018-03-06T02:42:03.846Z,38.79
2018-03-06T02:43:02.752Z,38.82
2018-03-06T02:44:02.758Z,38.8
2018-03-06T02:45:02.762Z,38.8
2018-03-06T02:46:07.513Z,38.8
2018-03-06T02:47:02.794Z,38.79
2018-03-06T02:48:02.720Z,38.83
2018-03-06T02:49:02.739Z,38.82
2018-03-06T02:50:09.412Z,38.83
2018-03-06T02:51:02.754Z,38.82
2018-03-06T02:52:02.810Z,38.79
2018-03-06T02:53:09.063Z,38.78
2018-03-06T02:54:02.817Z,38.8
2018-03-06T02:55:02.805Z,38.78
2018-03-06T02:56:02.743Z,38.77
2018-03-06T02:57:08.321Z,38.83
2018-03-06T02:58:02.757Z,38.79
2018-03-06T02:59:02.749Z,38.84
2018-03-06T03:00:06.934Z,38.83
2018-03-06T03:01:02.737Z,38.85
2018-03-06T03:02:02.769Z,38.85
2018-03-06T03:03:02.794Z,38.83
2018-03-06T03:04:09.094Z,38.85
2018-03-06T03:05:02.754Z,38.82
2018-03-06T03:06:02.774Z,38.8
2018-03-06T03:07:02.823Z,38.83
2018-03-06T03:08:07.462Z,38.85
2018-03-06T03:09:02.723Z,38.77
2018-03-06T03:10:02.781Z,38.81
2018-03-06T03:11:04.553Z,38.83
2018-03-06T03:12:02.735Z,38.84
2018-03-06T03:13:02.742Z,38.86
2018-03-06T03:14:02.713Z,38.85
2018-03-06T03:15:09.446Z,38.83
2018-03-06T03:16:02.792Z,38.85
2018-03-06T03:17:02.713Z,38.85
2018-03-06T03:18:02.711Z,38.87
2018-03-06T03:19:08.691Z,38.87
2018-03-06T03:20:02.753Z,38.83
2018-03-06T03:21:02.738Z,38.9
2018-03-06T03:22:02.776Z,38.86
2018-03-06T03:23:08.939Z,38.84
2018-03-06T03:24:02.745Z,38.83
2018-03-06T03:25:02.777Z,38.83
2018-03-06T03:26:08.115Z,38.85
2018-03-06T03:27:03.050Z,38.81
2018-03-06T03:28:02.768Z,38.84
2018-03-06T03:29:07.895Z,38.87
2018-03-06T03:30:02.781Z,38.88
2018-03-06T03:31:02.837Z,38.86
2018-03-06T03:32:09.872Z,38.9
2018-03-06T03:33:02.779Z,38.86
2018-03-06T03:34:02.709Z,38.87
2018-03-06T03:35:09.011Z,38.87
2018-03-06T03:36:02.724Z,38.83
2018-03-06T03:37:02.731Z,38.83
2018-03-06T03:38:02.741Z,38.84
2018-03-06T03:39:02.781Z,38.87
2018-03-06T03:40:02.754Z,38.86
2018-03-06T03:41:02.800Z,38.87
2018-03-06T03:42:09.158Z,38.82
2018-03-06T03:43:02.773Z,38.84
2018-03-06T03:44:02.749Z,38.84
2018-03-06T03:45:08.718Z,38.86
2018-03-06T03:46:02.739Z,38.87
2018-03-06T03:47:02.767Z,38.84
2018-03-06T03:48:07.782Z,38.88
2018-03-06T03:49:02.728Z,38.9
2018-03-06T03:50:02.698Z,38.84
2018-03-06T03:51:09.431Z,38.85
2018-03-06T03:52:02.763Z,38.79
2018-03-06T03:53:02.791Z,38.83
2018-03-06T03:54:03.889Z,38.83
2018-03-06T03:55:02.807Z,38.86
2018-03-06T03:56:02.815Z,38.85
2018-03-06T03:57:02.755Z,38.83
2018-03-06T03:58:09.538Z,38.84
2018-03-06T03:59:02.729Z,38.9
2018-03-06T04:00:02.795Z,38.89
2018-03-06T04:01:03.623Z,38.89
2018-03-06T04:02:02.773Z,38.82
2018-03-06T04:03:02.845Z,38.84
2018-03-06T04:04:02.793Z,38.83
2018-03-06T04:05:02.912Z,38.85
2018-03-06T04:06:02.717Z,38.83
2018-03-06T04:07:07.741Z,38.84
2018-03-06T04:08:02.773Z,38.84
2018-03-06T04:09:02.742Z,38.88
2018-03-06T04:10:08.755Z,38.85
2018-03-06T04:11:02.803Z,38.85
2018-03-06T04:12:02.793Z,38.9
2018-03-06T04:13:02.766Z,38.85
2018-03-06T04:14:02.769Z,38.85
2018-03-06T04:15:02.708Z,38.86
2018-03-06T04:16:02.781Z,38.81
2018-03-06T04:17:07.779Z,38.83
2018-03-06T04:18:02.704Z,38.91
2018-03-06T04:19:02.725Z,38.87
2018-03-06T04:20:09.525Z,38.9
2018-03-06T04:21:02.732Z,38.86
2018-03-06T04:22:02.756Z,38.89
2018-03-06T04:23:06.404Z,38.93
2018-03-06T04:24:02.784Z,38.87
2018-03-06T04:25:03.201Z,38.9
2018-03-06T04:26:02.739Z,38.91
2018-03-06T04:27:08.233Z,38.92
2018-03-06T04:28:02.702Z,38.87
2018-03-06T04:29:02.695Z,38.91
2018-03-06T04:30:02.717Z,38.84
2018-03-06T04:31:02.721Z,38.87
2018-03-06T04:32:02.754Z,38.88
2018-03-06T04:33:02.746Z,38.86
2018-03-06T04:34:08.351Z,38.9
2018-03-06T04:35:02.719Z,38.88
2018-03-06T04:36:02.725Z,38.85
2018-03-06T04:37:08.878Z,38.88
2018-03-06T04:38:02.836Z,38.89
2018-03-06T04:39:02.718Z,38.91
2018-03-06T04:40:08.096Z,38.84
2018-03-06T04:41:02.766Z,38.87
2018-03-06T04:42:02.788Z,38.89
2018-03-06T04:43:02.763Z,38.88
2018-03-06T04:44:07.805Z,38.85
2018-03-06T04:45:02.718Z,38.88
2018-03-06T04:46:02.757Z,38.86
2018-03-06T04:47:02.737Z,38.83
2018-03-06T04:48:08.980Z,38.83
2018-03-06T04:49:02.812Z,38.82
2018-03-06T04:50:02.756Z,38.84
2018-03-06T04:51:07.623Z,38.84
2018-03-06T04:52:02.774Z,38.82
2018-03-06T04:53:03.015Z,38.81
2018-03-06T04:54:02.732Z,38.88
2018-03-06T04:55:02.734Z,38.82
2018-03-06T04:56:02.715Z,38.86
2018-03-06T04:57:02.730Z,38.88
2018-03-06T04:58:05.315Z,38.87
2018-03-06T04:59:02.776Z,38.9
2018-03-06T05:00:02.734Z,38.91
2018-03-06T05:01:02.902Z,38.97
2018-03-06T05:02:09.392Z,38.97
2018-03-06T05:03:03.005Z,39
2018-03-06T05:04:02.749Z,38.99
2018-03-06T05:05:02.815Z,39.02
2018-03-06T05:06:08.458Z,39.02
2018-03-06T05:07:02.752Z,39.02
2018-03-06T05:08:02.761Z,39.01
2018-03-06T05:09:03.538Z,39.05
2018-03-06T05:10:02.688Z,39.09
2018-03-06T05:11:03.389Z,39.04
2018-03-06T05:12:02.780Z,39.07
2018-03-06T05:13:02.741Z,39.06
2018-03-06T05:14:02.720Z,39.13
2018-03-06T05:15:04.879Z,39.13
2018-03-06T05:16:02.718Z,39.07
2018-03-06T05:17:02.734Z,39.07
2018-03-06T05:18:02.706Z,39.02
2018-03-06T05:19:09.491Z,38.92
2018-03-06T05:20:02.708Z,38.94
2018-03-06T05:21:02.685Z,38.9
2018-03-06T05:22:02.729Z,38.92
2018-03-06T05:23:08.746Z,38.9
2018-03-06T05:24:02.726Z,38.9
2018-03-06T05:25:02.745Z,38.9
2018-03-06T05:26:02.690Z,38.84
2018-03-06T05:27:09.106Z,38.83
2018-03-06T05:28:02.675Z,38.84
2018-03-06T05:29:02.738Z,38.89
2018-03-06T05:30:02.784Z,38.89
2018-03-06T05:31:08.945Z,38.86
2018-03-06T05:32:02.764Z,38.91
2018-03-06T05:33:02.711Z,38.86
2018-03-06T05:34:08.389Z,38.86
2018-03-06T05:35:02.756Z,38.9
2018-03-06T05:36:02.722Z,38.83
2018-03-06T05:37:02.761Z,38.9
2018-03-06T05:38:09.343Z,38.88
2018-03-06T05:39:03.291Z,38.9
2018-03-06T05:40:03.008Z,38.84
2018-03-06T05:41:02.882Z,38.86
2018-03-06T05:42:09.200Z,38.87
2018-03-06T05:43:02.747Z,38.83
2018-03-06T05:44:02.752Z,38.85
2018-03-06T05:45:02.773Z,38.86
2018-03-06T05:46:09.297Z,38.9
2018-03-06T05:47:02.692Z,38.85
2018-03-06T05:48:02.722Z,38.94
2018-03-06T05:49:02.785Z,38.92
2018-03-06T05:50:09.524Z,38.88
2018-03-06T05:51:02.784Z,38.87
2018-03-06T05:52:02.680Z,38.87
2018-03-06T05:53:08.110Z,38.94
2018-03-06T05:54:02.779Z,38.87
2018-03-06T05:55:02.881Z,38.9
2018-03-06T05:56:02.726Z,38.95
2018-03-06T05:57:08.300Z,38.89
2018-03-06T05:58:02.706Z,38.87
2018-03-06T05:59:02.745Z,38.85
2018-03-06T06:00:02.746Z,38.89
2018-03-06T06:01:08.778Z,38.86
2018-03-06T06:02:02.820Z,38.95
2018-03-06T06:03:02.708Z,38.87
2018-03-06T06:04:05.964Z,38.92
2018-03-06T06:05:02.849Z,38.92
2018-03-06T06:06:02.710Z,38.92
2018-03-06T06:07:02.687Z,38.95
2018-03-06T06:08:02.838Z,38.87
2018-03-06T06:09:02.856Z,38.87
2018-03-06T06:10:08.885Z,38.9
2018-03-06T06:11:02.757Z,38.87
2018-03-06T06:12:02.702Z,38.91
2018-03-06T06:13:09.871Z,38.85
2018-03-06T06:14:03.419Z,38.93
2018-03-06T06:15:02.573Z,38.89
2018-03-06T06:16:02.558Z,38.79
2018-03-06T06:17:02.582Z,38.89
2018-03-06T06:18:02.598Z,38.84
2018-03-06T06:19:02.569Z,38.88
2018-03-06T06:20:02.608Z,38.83
2018-03-06T06:21:02.596Z,38.87
2018-03-06T06:22:02.582Z,38.89
2018-03-06T06:23:02.557Z,38.84
2018-03-06T06:24:02.569Z,38.89
2018-03-06T06:25:02.598Z,38.9
2018-03-06T06:26:02.598Z,38.89
2018-03-06T06:27:03.233Z,38.82
2018-03-06T06:28:02.894Z,38.85
2018-03-06T06:29:02.545Z,38.81
2018-03-06T06:30:02.608Z,38.88
2018-03-06T06:31:02.582Z,38.84
2018-03-06T06:32:02.583Z,38.86
2018-03-06T06:33:02.671Z,38.8
2018-03-06T06:34:02.560Z,38.88
2018-03-06T06:35:02.571Z,38.79
2018-03-06T06:36:02.578Z,38.82
2018-03-06T06:37:02.596Z,38.79
2018-03-06T06:38:02.842Z,38.83
2018-03-06T06:39:02.580Z,38.82
2018-03-06T06:40:02.855Z,38.83
2018-03-06T06:41:02.612Z,38.81
2018-03-06T06:42:02.785Z,38.81
2018-03-06T06:43:02.641Z,38.79
2018-03-06T06:44:02.600Z,38.78
2018-03-06T06:45:02.586Z,38.79
2018-03-06T06:46:02.554Z,38.82
2018-03-06T06:47:02.810Z,38.73
2018-03-06T06:48:02.567Z,38.76
2018-03-06T06:49:02.668Z,38.78
2018-03-06T06:50:02.625Z,38.76
2018-03-06T06:51:02.572Z,38.79
2018-03-06T06:52:02.599Z,38.76
2018-03-06T06:53:02.555Z,38.76
2018-03-06T06:54:02.560Z,38.72
2018-03-06T06:55:02.585Z,38.74
2018-03-06T06:56:02.549Z,38.71
2018-03-06T06:57:02.560Z,38.72
2018-03-06T06:58:02.586Z,38.73
2018-03-06T06:59:02.541Z,38.75
2018-03-06T07:00:02.545Z,38.71
2018-03-06T07:01:02.583Z,38.73
2018-03-06T07:02:02.542Z,38.71
2018-03-06T07:03:02.584Z,38.67
2018-03-06T07:04:02.558Z,38.69
2018-03-06T07:05:02.551Z,38.69
2018-03-06T07:06:02.621Z,38.75
2018-03-06T07:07:02.560Z,38.72
2018-03-06T07:08:02.550Z,38.72
2018-03-06T07:09:02.558Z,38.68
2018-03-06T07:10:02.546Z,38.68
2018-03-06T07:11:02.591Z,38.69
2018-03-06T07:12:02.537Z,38.67
2018-03-06T07:13:02.581Z,38.68
2018-03-06T07:14:02.543Z,38.67
2018-03-06T07:15:02.554Z,38.68
2018-03-06T07:16:02.539Z,38.63
2018-03-06T07:17:02.816Z,38.66
2018-03-06T07:18:02.615Z,38.67
2018-03-06T07:19:02.547Z,38.66
2018-03-06T07:20:02.564Z,38.62
2018-03-06T07:21:02.539Z,38.66
2018-03-06T07:22:02.848Z,38.62
2018-03-06T07:23:02.531Z,38.61
2018-03-06T07:24:02.562Z,38.6
2018-03-06T07:25:02.547Z,38.61
2018-03-06T07:26:02.553Z,38.62
2018-03-06T07:27:02.824Z,38.64
2018-03-06T07:28:02.539Z,38.63
2018-03-06T07:29:02.556Z,38.58
2018-03-06T07:30:02.548Z,38.6
2018-03-06T07:31:02.542Z,38.57
2018-03-06T07:32:02.582Z,38.6
2018-03-06T07:33:02.617Z,38.61
2018-03-06T07:34:02.579Z,38.63
2018-03-06T07:35:02.558Z,38.59
2018-03-06T07:36:02.539Z,38.59
2018-03-06T07:37:02.583Z,38.53
2018-03-06T07:38:02.646Z,38.61
2018-03-06T07:39:02.545Z,38.54
2018-03-06T07:40:02.543Z,38.55
2018-03-06T07:41:02.610Z,38.59
2018-03-06T07:42:02.604Z,38.57
2018-03-06T07:43:02.537Z,38.5
2018-03-06T07:44:02.538Z,38.55
2018-03-06T07:45:02.545Z,38.58
2018-03-06T07:46:02.528Z,38.53
2018-03-06T07:47:02.573Z,38.53
2018-03-06T07:48:02.561Z,38.52
2018-03-06T07:49:02.566Z,38.54
2018-03-06T07:50:02.523Z,38.5
2018-03-06T07:51:02.539Z,38.52
2018-03-06T07:52:02.549Z,38.5
2018-03-06T07:53:02.540Z,38.46
2018-03-06T07:54:02.553Z,38.55
2018-03-06T07:55:02.586Z,38.51
2018-03-06T07:56:02.611Z,38.5
2018-03-06T07:57:02.575Z,38.46
2018-03-06T07:58:02.524Z,38.51
2018-03-06T07:59:02.597Z,38.48
2018-03-06T08:00:02.562Z,38.45
2018-03-06T08:01:02.564Z,38.5
2018-03-06T08:02:02.570Z,38.49
2018-03-06T08:03:02.531Z,38.47
2018-03-06T08:04:02.575Z,38.49
2018-03-06T08:05:02.556Z,38.49
2018-03-06T08:06:02.588Z,38.45
2018-03-06T08:07:02.542Z,38.5
2018-03-06T08:08:02.571Z,38.43
2018-03-06T08:09:02.567Z,38.46
2018-03-06T08:10:02.543Z,38.46
2018-03-06T08:11:02.543Z,38.49
2018-03-06T08:12:02.968Z,38.5
2018-03-06T08:13:02.545Z,38.46
2018-03-06T08:14:02.589Z,38.42
2018-03-06T08:15:02.531Z,38.42
2018-03-06T08:16:02.532Z,38.44
2018-03-06T08:17:02.556Z,38.47
2018-03-06T08:18:02.534Z,38.41
2018-03-06T08:19:02.512Z,38.39
2018-03-06T08:20:02.510Z,38.42
2018-03-06T08:21:02.532Z,38.4
2018-03-06T08:22:02.535Z,38.44
2018-03-06T08:23:02.549Z,38.42
2018-03-06T08:24:02.539Z,38.41
2018-03-06T08:25:02.532Z,38.39
2018-03-06T08:26:02.542Z,38.43
2018-03-06T08:27:02.523Z,38.44
2018-03-06T08:28:02.521Z,38.39
2018-03-06T08:29:02.530Z,38.36
2018-03-06T08:30:02.538Z,38.41
2018-03-06T08:31:02.506Z,38.39
2018-03-06T08:32:02.532Z,38.34
2018-03-06T08:33:02.493Z,38.35
2018-03-06T08:34:02.510Z,38.39
2018-03-06T08:35:02.530Z,38.4
2018-03-06T08:36:02.547Z,38.39
2018-03-06T08:37:02.492Z,38.36
2018-03-06T08:38:02.530Z,38.32
2018-03-06T08:39:02.501Z,38.36
2018-03-06T08:40:02.557Z,38.38
2018-03-06T08:41:02.599Z,38.35
2018-03-06T08:42:02.500Z,38.36
2018-03-06T08:43:02.530Z,38.36
2018-03-06T08:44:02.509Z,38.3
2018-03-06T08:45:02.532Z,38.34
2018-03-06T08:46:02.540Z,38.34
2018-03-06T08:47:02.534Z,38.3
2018-03-06T08:48:02.557Z,38.33
2018-03-06T08:49:02.525Z,38.32
2018-03-06T08:50:02.514Z,38.28
2018-03-06T08:51:02.522Z,38.32
2018-03-06T08:52:02.509Z,38.24
2018-03-06T08:53:02.515Z,38.27
2018-03-06T08:54:02.513Z,38.3
2018-03-06T08:55:02.501Z,38.31
2018-03-06T08:56:02.505Z,38.32
2018-03-06T08:57:02.575Z,38.28
2018-03-06T08:58:02.495Z,38.31
2018-03-06T08:59:02.502Z,38.26
2018-03-06T09:00:02.517Z,38.3
2018-03-06T09:01:02.516Z,38.31
2018-03-06T09:02:02.525Z,38.33
2018-03-06T09:03:02.556Z,38.27
2018-03-06T09:04:02.627Z,38.29
2018-03-06T09:05:02.507Z,38.31
2018-03-06T09:06:02.515Z,38.31
2018-03-06T09:07:02.537Z,38.3
2018-03-06T09:08:02.505Z,38.29
2018-03-06T09:09:02.490Z,38.26
2018-03-06T09:10:02.505Z,38.29
2018-03-06T09:11:02.504Z,38.31
2018-03-06T09:12:02.768Z,38.26
2018-03-06T09:13:02.523Z,38.26
2018-03-06T09:14:02.511Z,38.31
2018-03-06T09:15:02.508Z,38.26
2018-03-06T09:16:02.511Z,38.3
2018-03-06T09:17:02.523Z,38.27
2018-03-06T09:18:02.530Z,38.25
2018-03-06T09:19:02.505Z,38.27
2018-03-06T09:20:02.511Z,38.33
2018-03-06T09:21:02.494Z,38.23
2018-03-06T09:22:02.570Z,38.28
2018-03-06T09:23:02.524Z,38.25
2018-03-06T09:24:02.502Z,38.25
2018-03-06T09:25:02.562Z,38.23
2018-03-06T09:26:02.512Z,38.25
2018-03-06T09:27:02.494Z,38.23
2018-03-06T09:28:02.495Z,38.25
2018-03-06T09:29:02.512Z,38.25
2018-03-06T09:30:02.554Z,38.26
2018-03-06T09:31:02.521Z,38.25
2018-03-06T09:32:02.499Z,38.18
2018-03-06T09:33:02.497Z,38.25
2018-03-06T09:34:02.523Z,38.16
2018-03-06T09:35:02.487Z,38.26
2018-03-06T09:36:02.498Z,38.2
2018-03-06T09:37:02.499Z,38.22
2018-03-06T09:38:02.537Z,38.22
2018-03-06T09:39:02.500Z,38.25
2018-03-06T09:40:02.493Z,38.23
2018-03-06T09:41:02.478Z,38.17
2018-03-06T09:42:02.479Z,38.19
2018-03-06T09:43:02.636Z,38.21
2018-03-06T09:44:02.512Z,38.21
2018-03-06T09:45:02.490Z,38.21
2018-03-06T09:46:02.519Z,38.23
2018-03-06T09:47:02.895Z,38.21
2018-03-06T09:48:02.488Z,38.22
2018-03-06T09:49:02.495Z,38.16
2018-03-06T09:50:02.570Z,38.26
2018-03-06T09:51:02.461Z,38.2
2018-03-06T09:52:02.494Z,38.2
2018-03-06T09:53:02.513Z,38.19
2018-03-06T09:54:02.472Z,38.2
2018-03-06T09:55:02.476Z,38.23
2018-03-06T09:56:02.608Z,38.18
2018-03-06T09:57:02.604Z,38.21
2018-03-06T09:58:02.490Z,38.15
2018-03-06T09:59:02.481Z,38.19
2018-03-06T10:00:02.496Z,38.14
2018-03-06T10:01:02.476Z,38.11
2018-03-06T10:02:02.485Z,38.19
2018-03-06T10:03:03.136Z,38.18
2018-03-06T10:04:02.484Z,38.18
2018-03-06T10:05:02.526Z,38.15
2018-03-06T10:06:02.497Z,38.09
2018-03-06T10:07:02.498Z,38.16
2018-03-06T10:08:02.492Z,38.14
2018-03-06T10:09:02.733Z,38.16
2018-03-06T10:10:02.504Z,38.12
2018-03-06T10:11:02.487Z,38.18
2018-03-06T10:12:02.465Z,38.14
2018-03-06T10:13:02.467Z,38.21
2018-03-06T10:14:02.510Z,38.18
2018-03-06T10:15:02.528Z,38.11
2018-03-06T10:16:02.477Z,38.13
2018-03-06T10:17:02.481Z,38.16
2018-03-06T10:18:02.504Z,38.12
2018-03-06T10:19:02.543Z,38.19
2018-03-06T10:20:02.592Z,38.11
2018-03-06T10:21:02.497Z,38.11
2018-03-06T10:22:02.525Z,38.11
2018-03-06T10:23:02.483Z,38.13
2018-03-06T10:24:02.442Z,38.09
2018-03-06T10:25:02.472Z,38.12
2018-03-06T10:26:02.535Z,38.15
2018-03-06T10:27:02.474Z,38.15
2018-03-06T10:28:02.661Z,38.17
2018-03-06T10:29:02.487Z,38.09
2018-03-06T10:30:02.442Z,38.07
2018-03-06T10:31:02.472Z,38.12
2018-03-06T10:32:02.523Z,38.14
2018-03-06T10:33:02.488Z,38.13
2018-03-06T10:34:02.905Z,38.12
2018-03-06T10:35:02.612Z,38.14
2018-03-06T10:36:02.475Z,38.16
2018-03-06T10:37:02.484Z,38.12
2018-03-06T10:38:02.471Z,38.15
2018-03-06T10:39:02.507Z,38.12
2018-03-06T10:40:02.532Z,38.11
2018-03-06T10:41:02.496Z,38.08
2018-03-06T10:42:02.476Z,38.06
2018-03-06T10:43:02.464Z,38.06
2018-03-06T10:44:02.465Z,38.1
2018-03-06T10:45:02.486Z,38.09
2018-03-06T10:46:02.446Z,38.13
2018-03-06T10:47:02.865Z,38.07
2018-03-06T10:48:02.511Z,38.08
2018-03-06T10:49:02.510Z,38.1
2018-03-06T10:50:02.526Z,38.1
2018-03-06T10:51:02.477Z,38.1
2018-03-06T10:52:02.548Z,38.04
2018-03-06T10:53:02.476Z,38.06
2018-03-06T10:54:02.497Z,38.06
2018-03-06T10:55:02.484Z,38.06
2018-03-06T10:56:02.502Z,38.06
2018-03-06T10:57:02.464Z,38.1
2018-03-06T10:58:02.476Z,38.08
2018-03-06T10:59:02.485Z,38.02
2018-03-06T11:00:02.494Z,38
2018-03-06T11:01:02.476Z,38.04
2018-03-06T11:02:02.481Z,38.1
2018-03-06T11:03:02.473Z,38
2018-03-06T11:04:02.497Z,38.06
2018-03-06T11:05:02.490Z,38.06
2018-03-06T11:06:02.442Z,38.01
2018-03-06T11:07:02.469Z,38.03
2018-03-06T11:08:02.449Z,38.12
2018-03-06T11:09:02.472Z,38
2018-03-06T11:10:02.504Z,38.08
2018-03-06T11:11:02.457Z,38.02
2018-03-06T11:12:02.466Z,38.02
2018-03-06T11:13:02.480Z,38.08
2018-03-06T11:14:02.448Z,38.08
2018-03-06T11:15:02.516Z,38.08
2018-03-06T11:16:02.512Z,38.11
2018-03-06T11:17:02.460Z,38.07
2018-03-06T11:18:02.459Z,38.05
2018-03-06T11:19:02.484Z,38.03
2018-03-06T11:20:02.483Z,38.01
2018-03-06T11:21:02.499Z,38.02
2018-03-06T11:22:02.470Z,38.04
2018-03-06T11:23:02.450Z,37.99
2018-03-06T11:24:02.458Z,38.08
2018-03-06T11:25:02.497Z,38.06
2018-03-06T11:26:02.487Z,38.03
2018-03-06T11:27:02.441Z,38.03
2018-03-06T11:28:02.746Z,37.99
2018-03-06T11:29:02.458Z,38.02
2018-03-06T11:30:02.488Z,37.98
2018-03-06T11:31:02.488Z,38.03
2018-03-06T11:32:02.460Z,38.05
2018-03-06T11:33:02.505Z,37.99
2018-03-06T11:34:02.448Z,38.03
2018-03-06T11:35:02.437Z,38.01
2018-03-06T11:36:02.676Z,37.96
2018-03-06T11:37:02.530Z,38.03
2018-03-06T11:38:02.456Z,38.03
2018-03-06T11:39:02.447Z,38.01
2018-03-06T11:40:02.443Z,38.06
2018-03-06T11:41:02.460Z,38.02
2018-03-06T11:42:02.540Z,38.01
2018-03-06T11:43:02.497Z,38.03
2018-03-06T11:44:02.496Z,38.07
2018-03-06T11:45:02.452Z,38.02
2018-03-06T11:46:02.464Z,38.06
2018-03-06T11:47:02.440Z,38.01
2018-03-06T11:48:02.756Z,38.08
2018-03-06T11:49:02.499Z,37.99
2018-03-06T11:50:03.011Z,38.07
2018-03-06T11:51:02.451Z,38.06
2018-03-06T11:52:02.425Z,38.07
2018-03-06T11:53:02.494Z,38.01
2018-03-06T11:54:02.480Z,38.01
2018-03-06T11:55:02.419Z,38.08
2018-03-06T11:56:02.452Z,37.98
2018-03-06T11:57:02.491Z,38.06
2018-03-06T11:58:02.581Z,38.08
2018-03-06T11:59:02.463Z,38.04
2018-03-06T12:00:02.465Z,38.05
2018-03-06T12:01:02.429Z,38.02
2018-03-06T12:02:02.751Z,38.06
2018-03-06T12:03:02.486Z,38.03
2018-03-06T12:04:02.536Z,38.02
2018-03-06T12:05:02.429Z,38.01
2018-03-06T12:06:02.438Z,38.01
2018-03-06T12:07:02.471Z,38.02
2018-03-06T12:08:02.459Z,38.03
2018-03-06T12:09:02.454Z,38.01
2018-03-06T12:10:02.838Z,38.1
2018-03-06T12:11:02.445Z,37.99
2018-03-06T12:12:02.452Z,38.05
2018-03-06T12:13:02.474Z,38.01
2018-03-06T12:14:02.464Z,38.03
2018-03-06T12:15:02.445Z,38.03
2018-03-06T12:16:02.429Z,38.05
2018-03-06T12:17:02.429Z,38.03
2018-03-06T12:18:02.714Z,38.12
2018-03-06T12:19:02.435Z,38.03
2018-03-06T12:20:02.457Z,38
2018-03-06T12:21:02.499Z,38.04
2018-03-06T12:22:02.426Z,38
2018-03-06T12:23:02.470Z,38.04
2018-03-06T12:24:02.453Z,37.97
2018-03-06T12:25:02.436Z,38.03
2018-03-06T12:26:02.460Z,38.01
2018-03-06T12:27:02.438Z,38
2018-03-06T12:28:02.424Z,37.98
2018-03-06T12:29:02.435Z,37.99
2018-03-06T12:30:02.791Z,37.95
2018-03-06T12:31:02.462Z,38.04
2018-03-06T12:32:02.465Z,38.01
2018-03-06T12:33:02.441Z,38.03
2018-03-06T12:34:02.458Z,38.01
2018-03-06T12:35:02.502Z,37.99
2018-03-06T12:36:02.431Z,38
2018-03-06T12:37:02.433Z,38.01
2018-03-06T12:38:02.424Z,37.97
2018-03-06T12:39:02.478Z,38.03
2018-03-06T12:40:02.448Z,38.05
2018-03-06T12:41:02.425Z,38.01
2018-03-06T12:42:02.438Z,38.01
2018-03-06T12:43:02.448Z,38.01
2018-03-06T12:44:02.477Z,38.01
2018-03-06T12:45:03.658Z,38.04
2018-03-06T12:46:02.444Z,38
2018-03-06T12:47:02.438Z,38.04
2018-03-06T12:48:02.462Z,37.99
2018-03-06T12:49:02.450Z,38.03
2018-03-06T12:50:02.436Z,38.01
2018-03-06T12:51:02.411Z,38.01
2018-03-06T12:52:02.442Z,38.01
2018-03-06T12:53:02.430Z,38.01
2018-03-06T12:54:02.461Z,38.01
2018-03-06T12:55:02.424Z,38.06